Terminal Aerodrome Forecast
Issued by NWS Cleveland, OH

Home | Current Version | Previous Version | Graphics & Text | Print | Product List | Glossary On
Versions: 1 2 3 4 5 6 7 8 9 10 11 12 13 14 15 16 17 18 19 20 21 22 23 24 25 26 27 28 29 30 31
917
FTUS41 KCLE 201139
TAFCLE
TAF
KCLE 201139Z 2012/2118 11006KT 6SM -RA BR OVC040
     FM201300 13008KT 4SM -RA BR OVC025
      TEMPO 2013/2015 2SM -RA BR OVC015
     FM201500 16008KT 6SM -RA BR OVC007
     FM201700 20006KT P6SM OVC007
     FM202300 20006KT P6SM OVC012
     FM210600 18004KT 5SM BR OVC007=

USA.gov is the U.S. government's official web portal to all federal, state and local government web resources and services.